sensor_id;sensor_type;location;lat;lon;timestamp;P1;durP1;ratioP1;P2;durP2;ratioP2
34236;SDS011;20501;45.956;13.632;2022-10-16T00:01:32;73.88;;;37.22;;
34236;SDS011;20501;45.956;13.632;2022-10-16T00:03:57;65.65;;;35.40;;
34236;SDS011;20501;45.956;13.632;2022-10-16T00:06:24;65.22;;;35.58;;
34236;SDS011;20501;45.956;13.632;2022-10-16T00:11:21;60.90;;;32.72;;
34236;SDS011;20501;45.956;13.632;2022-10-16T00:13:49;60.92;;;33.95;;
34236;SDS011;20501;45.956;13.632;2022-10-16T00:16:17;65.00;;;34.72;;
34236;SDS011;20501;45.956;13.632;2022-10-16T00:18:44;58.53;;;34.03;;
34236;SDS011;20501;45.956;13.632;2022-10-16T00:21:11;58.60;;;31.42;;
34236;SDS011;20501;45.956;13.632;2022-10-16T00:23:38;59.67;;;32.72;;
34236;SDS011;20501;45.956;13.632;2022-10-16T00:26:05;72.13;;;34.65;;
34236;SDS011;20501;45.956;13.632;2022-10-16T00:28:34;57.10;;;32.72;;
34236;SDS011;20501;45.956;13.632;2022-10-16T00:31:07;57.63;;;31.92;;
34236;SDS011;20501;45.956;13.632;2022-10-16T00:33:35;58.15;;;33.30;;
34236;SDS011;20501;45.956;13.632;2022-10-16T00:36:02;58.53;;;32.08;;
34236;SDS011;20501;45.956;13.632;2022-10-16T00:38:29;58.75;;;31.88;;
34236;SDS011;20501;45.956;13.632;2022-10-16T00:40:54;59.85;;;32.70;;
34236;SDS011;20501;45.956;13.632;2022-10-16T00:46:00;71.60;;;32.90;;
34236;SDS011;20501;45.956;13.632;2022-10-16T00:48:28;59.13;;;33.42;;
34236;SDS011;20501;45.956;13.632;2022-10-16T00:50:54;57.35;;;32.35;;
34236;SDS011;20501;45.956;13.632;2022-10-16T00:53:21;59.47;;;33.15;;
34236;SDS011;20501;45.956;13.632;2022-10-16T00:55:47;54.60;;;30.98;;
34236;SDS011;20501;45.956;13.632;2022-10-16T00:58:12;57.63;;;31.40;;
34236;SDS011;20501;45.956;13.632;2022-10-16T01:00:38;57.67;;;32.72;;
34236;SDS011;20501;45.956;13.632;2022-10-16T01:03:21;55.22;;;31.45;;
34236;SDS011;20501;45.956;13.632;2022-10-16T01:05:53;58.65;;;32.22;;
34236;SDS011;20501;45.956;13.632;2022-10-16T01:08:34;54.42;;;30.98;;
34236;SDS011;20501;45.956;13.632;2022-10-16T01:11:12;56.40;;;31.85;;
34236;SDS011;20501;45.956;13.632;2022-10-16T01:13:46;52.85;;;30.88;;
34236;SDS011;20501;45.956;13.632;2022-10-16T01:17:02;54.58;;;31.10;;
34236;SDS011;20501;45.956;13.632;2022-10-16T01:19:13;50.65;;;28.98;;
34236;SDS011;20501;45.956;13.632;2022-10-16T01:21:46;51.80;;;30.40;;
34236;SDS011;20501;45.956;13.632;2022-10-16T01:29:56;48.97;;;28.48;;
34236;SDS011;20501;45.956;13.632;2022-10-16T01:37:53;55.35;;;30.27;;
34236;SDS011;20501;45.956;13.632;2022-10-16T01:40:27;54.08;;;30.00;;
34236;SDS011;20501;45.956;13.632;2022-10-16T01:43:00;54.05;;;31.17;;
34236;SDS011;20501;45.956;13.632;2022-10-16T01:45:30;61.53;;;32.83;;
34236;SDS011;20501;45.956;13.632;2022-10-16T01:47:58;54.38;;;30.00;;
34236;SDS011;20501;45.956;13.632;2022-10-16T01:50:29;62.03;;;32.83;;
34236;SDS011;20501;45.956;13.632;2022-10-16T01:52:59;65.63;;;34.75;;
34236;SDS011;20501;45.956;13.632;2022-10-16T01:55:34;59.58;;;32.95;;
34236;SDS011;20501;45.956;13.632;2022-10-16T01:58:03;61.28;;;33.13;;
34236;SDS011;20501;45.956;13.632;2022-10-16T02:00:32;56.55;;;32.13;;
34236;SDS011;20501;45.956;13.632;2022-10-16T02:02:57;60.53;;;32.63;;
34236;SDS011;20501;45.956;13.632;2022-10-16T02:05:31;65.75;;;34.40;;
34236;SDS011;20501;45.956;13.632;2022-10-16T02:08:02;66.80;;;32.67;;
34236;SDS011;20501;45.956;13.632;2022-10-16T02:10:28;59.50;;;32.55;;
34236;SDS011;20501;45.956;13.632;2022-10-16T02:16:07;53.95;;;29.73;;
34236;SDS011;20501;45.956;13.632;2022-10-16T02:18:35;55.28;;;30.75;;
34236;SDS011;20501;45.956;13.632;2022-10-16T02:21:02;55.38;;;30.60;;
34236;SDS011;20501;45.956;13.632;2022-10-16T02:23:43;56.33;;;31.77;;
34236;SDS011;20501;45.956;13.632;2022-10-16T02:26:18;53.42;;;29.95;;
34236;SDS011;20501;45.956;13.632;2022-10-16T02:28:59;51.83;;;28.55;;
34236;SDS011;20501;45.956;13.632;2022-10-16T02:31:31;49.67;;;29.02;;
34236;SDS011;20501;45.956;13.632;2022-10-16T02:33:59;57.92;;;32.03;;
34236;SDS011;20501;45.956;13.632;2022-10-16T02:36:27;53.88;;;30.98;;
34236;SDS011;20501;45.956;13.632;2022-10-16T02:38:54;51.08;;;29.00;;
34236;SDS011;20501;45.956;13.632;2022-10-16T02:41:20;47.35;;;28.55;;
34236;SDS011;20501;45.956;13.632;2022-10-16T02:43:48;57.88;;;31.63;;
34236;SDS011;20501;45.956;13.632;2022-10-16T02:46:14;57.47;;;31.90;;
34236;SDS011;20501;45.956;13.632;2022-10-16T02:48:39;60.63;;;32.78;;
34236;SDS011;20501;45.956;13.632;2022-10-16T02:51:04;59.28;;;31.10;;
34236;SDS011;20501;45.956;13.632;2022-10-16T02:53:30;61.13;;;32.95;;
34236;SDS011;20501;45.956;13.632;2022-10-16T02:55:55;61.45;;;33.40;;
34236;SDS011;20501;45.956;13.632;2022-10-16T02:58:20;61.47;;;34.35;;
34236;SDS011;20501;45.956;13.632;2022-10-16T03:00:46;56.45;;;32.65;;
34236;SDS011;20501;45.956;13.632;2022-10-16T03:03:11;57.45;;;31.17;;
34236;SDS011;20501;45.956;13.632;2022-10-16T03:05:37;60.28;;;32.03;;
34236;SDS011;20501;45.956;13.632;2022-10-16T03:08:02;56.10;;;30.90;;
34236;SDS011;20501;45.956;13.632;2022-10-16T03:10:28;53.42;;;30.27;;
34236;SDS011;20501;45.956;13.632;2022-10-16T03:12:53;57.25;;;30.92;;
34236;SDS011;20501;45.956;13.632;2022-10-16T03:15:18;51.08;;;29.83;;
34236;SDS011;20501;45.956;13.632;2022-10-16T03:17:44;55.45;;;32.08;;
34236;SDS011;20501;45.956;13.632;2022-10-16T03:20:09;54.50;;;30.13;;
34236;SDS011;20501;45.956;13.632;2022-10-16T03:22:35;55.45;;;30.98;;
34236;SDS011;20501;45.956;13.632;2022-10-16T03:25:00;50.13;;;28.58;;
34236;SDS011;20501;45.956;13.632;2022-10-16T03:27:26;56.65;;;30.58;;
34236;SDS011;20501;45.956;13.632;2022-10-16T03:29:51;49.53;;;29.00;;
34236;SDS011;20501;45.956;13.632;2022-10-16T03:32:17;53.17;;;30.02;;
34236;SDS011;20501;45.956;13.632;2022-10-16T03:34:43;55.60;;;31.33;;
34236;SDS011;20501;45.956;13.632;2022-10-16T03:37:08;64.78;;;32.55;;
34236;SDS011;20501;45.956;13.632;2022-10-16T03:39:34;47.47;;;28.13;;
34236;SDS011;20501;45.956;13.632;2022-10-16T03:41:59;50.80;;;28.35;;
34236;SDS011;20501;45.956;13.632;2022-10-16T03:44:25;54.70;;;30.48;;
34236;SDS011;20501;45.956;13.632;2022-10-16T03:46:50;53.40;;;29.33;;
34236;SDS011;20501;45.956;13.632;2022-10-16T03:49:16;59.72;;;31.77;;
34236;SDS011;20501;45.956;13.632;2022-10-16T03:51:41;59.20;;;32.63;;
34236;SDS011;20501;45.956;13.632;2022-10-16T03:54:06;64.57;;;33.60;;
34236;SDS011;20501;45.956;13.632;2022-10-16T03:56:32;59.95;;;31.65;;
34236;SDS011;20501;45.956;13.632;2022-10-16T03:58:57;53.47;;;30.55;;
34236;SDS011;20501;45.956;13.632;2022-10-16T04:01:23;61.83;;;32.38;;
34236;SDS011;20501;45.956;13.632;2022-10-16T04:03:49;54.13;;;31.07;;
34236;SDS011;20501;45.956;13.632;2022-10-16T04:06:14;56.08;;;32.40;;
34236;SDS011;20501;45.956;13.632;2022-10-16T04:08:42;52.13;;;30.05;;
34236;SDS011;20501;45.956;13.632;2022-10-16T04:11:08;56.72;;;30.88;;
34236;SDS011;20501;45.956;13.632;2022-10-16T04:13:33;55.80;;;29.88;;
34236;SDS011;20501;45.956;13.632;2022-10-16T04:15:59;50.92;;;29.02;;
34236;SDS011;20501;45.956;13.632;2022-10-16T04:18:24;56.45;;;32.35;;
34236;SDS011;20501;45.956;13.632;2022-10-16T04:20:52;52.60;;;29.20;;
34236;SDS011;20501;45.956;13.632;2022-10-16T04:23:18;56.30;;;30.88;;
34236;SDS011;20501;45.956;13.632;2022-10-16T04:25:43;52.70;;;30.15;;
34236;SDS011;20501;45.956;13.632;2022-10-16T04:28:08;54.55;;;31.10;;
34236;SDS011;20501;45.956;13.632;2022-10-16T04:30:34;53.15;;;28.73;;
34236;SDS011;20501;45.956;13.632;2022-10-16T04:32:59;55.17;;;31.25;;
34236;SDS011;20501;45.956;13.632;2022-10-16T04:35:25;49.15;;;29.45;;
34236;SDS011;20501;45.956;13.632;2022-10-16T04:37:50;48.55;;;28.90;;
34236;SDS011;20501;45.956;13.632;2022-10-16T04:40:16;51.63;;;29.20;;
34236;SDS011;20501;45.956;13.632;2022-10-16T04:42:42;54.08;;;30.65;;
34236;SDS011;20501;45.956;13.632;2022-10-16T04:45:07;49.58;;;29.15;;
34236;SDS011;20501;45.956;13.632;2022-10-16T04:47:33;52.45;;;29.83;;
34236;SDS011;20501;45.956;13.632;2022-10-16T04:49:59;53.22;;;30.20;;
34236;SDS011;20501;45.956;13.632;2022-10-16T04:52:26;51.72;;;29.17;;
34236;SDS011;20501;45.956;13.632;2022-10-16T04:54:51;53.83;;;30.05;;
34236;SDS011;20501;45.956;13.632;2022-10-16T04:57:17;58.45;;;31.83;;
34236;SDS011;20501;45.956;13.632;2022-10-16T04:59:42;52.20;;;30.33;;
34236;SDS011;20501;45.956;13.632;2022-10-16T05:02:08;47.38;;;27.92;;
34236;SDS011;20501;45.956;13.632;2022-10-16T05:04:34;56.35;;;31.85;;
34236;SDS011;20501;45.956;13.632;2022-10-16T05:06:59;51.33;;;29.70;;
34236;SDS011;20501;45.956;13.632;2022-10-16T05:09:24;54.10;;;29.65;;
34236;SDS011;20501;45.956;13.632;2022-10-16T05:11:50;60.25;;;31.67;;
34236;SDS011;20501;45.956;13.632;2022-10-16T05:14:15;53.90;;;31.10;;
34236;SDS011;20501;45.956;13.632;2022-10-16T05:16:41;59.30;;;31.83;;
34236;SDS011;20501;45.956;13.632;2022-10-16T05:19:06;53.92;;;30.25;;
34236;SDS011;20501;45.956;13.632;2022-10-16T05:21:32;48.55;;;28.33;;
34236;SDS011;20501;45.956;13.632;2022-10-16T05:23:57;52.05;;;28.92;;
34236;SDS011;20501;45.956;13.632;2022-10-16T05:26:23;61.17;;;32.95;;
34236;SDS011;20501;45.956;13.632;2022-10-16T05:28:49;63.63;;;33.35;;
34236;SDS011;20501;45.956;13.632;2022-10-16T05:31:14;58.22;;;32.28;;
34236;SDS011;20501;45.956;13.632;2022-10-16T05:33:40;51.78;;;30.00;;
34236;SDS011;20501;45.956;13.632;2022-10-16T05:36:07;47.45;;;29.67;;
34236;SDS011;20501;45.956;13.632;2022-10-16T05:38:34;55.10;;;31.67;;
34236;SDS011;20501;45.956;13.632;2022-10-16T05:41:00;50.15;;;29.35;;
34236;SDS011;20501;45.956;13.632;2022-10-16T05:43:26;58.88;;;30.92;;
34236;SDS011;20501;45.956;13.632;2022-10-16T05:45:54;49.95;;;29.02;;
34236;SDS011;20501;45.956;13.632;2022-10-16T05:50:45;46.92;;;27.88;;
34236;SDS011;20501;45.956;13.632;2022-10-16T05:53:11;47.60;;;27.17;;
34236;SDS011;20501;45.956;13.632;2022-10-16T05:55:36;46.75;;;27.80;;
34236;SDS011;20501;45.956;13.632;2022-10-16T05:58:01;53.45;;;31.45;;
34236;SDS011;20501;45.956;13.632;2022-10-16T06:00:27;54.83;;;28.83;;
34236;SDS011;20501;45.956;13.632;2022-10-16T06:02:52;44.92;;;27.52;;
34236;SDS011;20501;45.956;13.632;2022-10-16T06:05:18;47.97;;;28.30;;
34236;SDS011;20501;45.956;13.632;2022-10-16T06:07:43;49.40;;;28.90;;
34236;SDS011;20501;45.956;13.632;2022-10-16T06:10:09;48.75;;;28.67;;
34236;SDS011;20501;45.956;13.632;2022-10-16T06:12:34;54.30;;;30.73;;
34236;SDS011;20501;45.956;13.632;2022-10-16T06:15:00;55.38;;;30.23;;
34236;SDS011;20501;45.956;13.632;2022-10-16T06:17:25;53.63;;;30.45;;
34236;SDS011;20501;45.956;13.632;2022-10-16T06:19:50;55.90;;;30.33;;
34236;SDS011;20501;45.956;13.632;2022-10-16T06:22:16;53.22;;;28.35;;
34236;SDS011;20501;45.956;13.632;2022-10-16T06:24:41;48.22;;;28.23;;
34236;SDS011;20501;45.956;13.632;2022-10-16T06:27:06;51.38;;;29.77;;
34236;SDS011;20501;45.956;13.632;2022-10-16T06:29:32;49.08;;;27.92;;
34236;SDS011;20501;45.956;13.632;2022-10-16T06:31:57;50.47;;;29.08;;
34236;SDS011;20501;45.956;13.632;2022-10-16T06:34:23;58.10;;;31.20;;
34236;SDS011;20501;45.956;13.632;2022-10-16T06:36:48;48.85;;;28.98;;
34236;SDS011;20501;45.956;13.632;2022-10-16T06:39:13;54.17;;;31.58;;
34236;SDS011;20501;45.956;13.632;2022-10-16T06:41:39;58.17;;;32.15;;
34236;SDS011;20501;45.956;13.632;2022-10-16T06:44:05;52.97;;;29.92;;
34236;SDS011;20501;45.956;13.632;2022-10-16T06:46:32;58.28;;;31.20;;
34236;SDS011;20501;45.956;13.632;2022-10-16T06:48:57;55.15;;;31.70;;
34236;SDS011;20501;45.956;13.632;2022-10-16T06:51:24;62.05;;;32.60;;
34236;SDS011;20501;45.956;13.632;2022-10-16T06:53:54;59.10;;;32.22;;
34236;SDS011;20501;45.956;13.632;2022-10-16T06:56:22;55.00;;;31.23;;
34236;SDS011;20501;45.956;13.632;2022-10-16T06:58:49;59.30;;;31.35;;
34236;SDS011;20501;45.956;13.632;2022-10-16T07:01:17;55.25;;;31.35;;
34236;SDS011;20501;45.956;13.632;2022-10-16T07:03:44;58.28;;;32.20;;
34236;SDS011;20501;45.956;13.632;2022-10-16T07:06:11;61.75;;;33.05;;
34236;SDS011;20501;45.956;13.632;2022-10-16T07:08:38;58.95;;;31.45;;
34236;SDS011;20501;45.956;13.632;2022-10-16T07:13:35;51.55;;;29.23;;
34236;SDS011;20501;45.956;13.632;2022-10-16T07:16:08;51.20;;;28.80;;
34236;SDS011;20501;45.956;13.632;2022-10-16T07:18:39;60.47;;;32.08;;
34236;SDS011;20501;45.956;13.632;2022-10-16T07:21:09;61.95;;;34.22;;
34236;SDS011;20501;45.956;13.632;2022-10-16T07:23:36;57.88;;;32.15;;
34236;SDS011;20501;45.956;13.632;2022-10-16T07:26:02;61.30;;;32.47;;
34236;SDS011;20501;45.956;13.632;2022-10-16T07:28:29;55.63;;;30.95;;
34236;SDS011;20501;45.956;13.632;2022-10-16T07:30:55;62.28;;;33.45;;
34236;SDS011;20501;45.956;13.632;2022-10-16T07:33:20;62.40;;;33.95;;
34236;SDS011;20501;45.956;13.632;2022-10-16T07:38:19;60.22;;;31.88;;
34236;SDS011;20501;45.956;13.632;2022-10-16T07:40:45;58.50;;;32.63;;
34236;SDS011;20501;45.956;13.632;2022-10-16T07:43:11;54.00;;;30.33;;
34236;SDS011;20501;45.956;13.632;2022-10-16T07:45:37;58.67;;;31.97;;
34236;SDS011;20501;45.956;13.632;2022-10-16T07:48:13;58.05;;;32.15;;
34236;SDS011;20501;45.956;13.632;2022-10-16T07:50:39;52.63;;;29.92;;
34236;SDS011;20501;45.956;13.632;2022-10-16T07:53:04;55.90;;;31.63;;
34236;SDS011;20501;45.956;13.632;2022-10-16T07:55:31;57.40;;;32.30;;
34236;SDS011;20501;45.956;13.632;2022-10-16T07:57:56;71.50;;;31.65;;
34236;SDS011;20501;45.956;13.632;2022-10-16T08:00:21;56.83;;;31.58;;
34236;SDS011;20501;45.956;13.632;2022-10-16T08:02:47;54.65;;;30.33;;
34236;SDS011;20501;45.956;13.632;2022-10-16T08:05:12;56.88;;;31.45;;
34236;SDS011;20501;45.956;13.632;2022-10-16T08:07:38;54.97;;;29.98;;
34236;SDS011;20501;45.956;13.632;2022-10-16T08:10:03;55.38;;;30.45;;
34236;SDS011;20501;45.956;13.632;2022-10-16T08:12:29;64.07;;;32.10;;
34236;SDS011;20501;45.956;13.632;2022-10-16T08:14:54;60.08;;;32.67;;
34236;SDS011;20501;45.956;13.632;2022-10-16T08:17:20;57.55;;;31.92;;
34236;SDS011;20501;45.956;13.632;2022-10-16T08:19:48;57.28;;;30.90;;
34236;SDS011;20501;45.956;13.632;2022-10-16T08:22:14;54.15;;;29.58;;
34236;SDS011;20501;45.956;13.632;2022-10-16T08:24:40;63.25;;;35.22;;
34236;SDS011;20501;45.956;13.632;2022-10-16T08:27:06;59.67;;;31.77;;
34236;SDS011;20501;45.956;13.632;2022-10-16T08:29:32;66.40;;;32.90;;
34236;SDS011;20501;45.956;13.632;2022-10-16T08:31:57;57.78;;;31.67;;
34236;SDS011;20501;45.956;13.632;2022-10-16T08:34:23;61.08;;;31.60;;
34236;SDS011;20501;45.956;13.632;2022-10-16T08:36:48;57.72;;;31.30;;
34236;SDS011;20501;45.956;13.632;2022-10-16T08:39:14;57.90;;;30.67;;
34236;SDS011;20501;45.956;13.632;2022-10-16T08:49:42;57.47;;;30.15;;
34236;SDS011;20501;45.956;13.632;2022-10-16T08:52:25;60.67;;;32.42;;
34236;SDS011;20501;45.956;13.632;2022-10-16T08:54:56;62.65;;;31.38;;
34236;SDS011;20501;45.956;13.632;2022-10-16T08:57:22;57.53;;;31.00;;
34236;SDS011;20501;45.956;13.632;2022-10-16T08:59:54;60.88;;;31.13;;
34236;SDS011;20501;45.956;13.632;2022-10-16T09:02:38;56.88;;;31.75;;
34236;SDS011;20501;45.956;13.632;2022-10-16T09:10:38;58.72;;;31.23;;
34236;SDS011;20501;45.956;13.632;2022-10-16T09:16:00;52.25;;;29.30;;
34236;SDS011;20501;45.956;13.632;2022-10-16T09:21:36;55.03;;;29.13;;
34236;SDS011;20501;45.956;13.632;2022-10-16T09:24:13;47.28;;;27.38;;
34236;SDS011;20501;45.956;13.632;2022-10-16T09:26:41;58.60;;;31.05;;
34236;SDS011;20501;45.956;13.632;2022-10-16T09:29:11;50.33;;;29.17;;
34236;SDS011;20501;45.956;13.632;2022-10-16T09:31:38;45.53;;;27.30;;
34236;SDS011;20501;45.956;13.632;2022-10-16T09:34:04;60.70;;;31.70;;
34236;SDS011;20501;45.956;13.632;2022-10-16T09:36:39;46.33;;;26.65;;
34236;SDS011;20501;45.956;13.632;2022-10-16T09:39:07;56.30;;;31.15;;
34236;SDS011;20501;45.956;13.632;2022-10-16T09:41:35;50.60;;;29.80;;
34236;SDS011;20501;45.956;13.632;2022-10-16T09:44:04;61.88;;;32.13;;
34236;SDS011;20501;45.956;13.632;2022-10-16T09:46:42;61.72;;;32.90;;
34236;SDS011;20501;45.956;13.632;2022-10-16T09:49:21;64.32;;;33.95;;
34236;SDS011;20501;45.956;13.632;2022-10-16T09:51:48;59.28;;;32.20;;
34236;SDS011;20501;45.956;13.632;2022-10-16T09:54:15;59.83;;;33.30;;
34236;SDS011;20501;45.956;13.632;2022-10-16T09:56:40;57.05;;;32.28;;
34236;SDS011;20501;45.956;13.632;2022-10-16T09:59:16;62.10;;;32.03;;
34236;SDS011;20501;45.956;13.632;2022-10-16T10:01:47;57.90;;;29.73;;
34236;SDS011;20501;45.956;13.632;2022-10-16T10:04:15;59.08;;;31.45;;
34236;SDS011;20501;45.956;13.632;2022-10-16T10:06:43;59.03;;;32.90;;
34236;SDS011;20501;45.956;13.632;2022-10-16T10:11:58;62.33;;;34.15;;
34236;SDS011;20501;45.956;13.632;2022-10-16T10:14:30;46.70;;;27.80;;
34236;SDS011;20501;45.956;13.632;2022-10-16T10:17:18;64.25;;;33.85;;
34236;SDS011;20501;45.956;13.632;2022-10-16T10:22:45;64.85;;;35.28;;
34236;SDS011;20501;45.956;13.632;2022-10-16T10:30:38;68.63;;;36.97;;
34236;SDS011;20501;45.956;13.632;2022-10-16T10:36:16;66.38;;;36.58;;
34236;SDS011;20501;45.956;13.632;2022-10-16T10:38:54;60.70;;;32.67;;
34236;SDS011;20501;45.956;13.632;2022-10-16T10:44:21;77.32;;;36.80;;
34236;SDS011;20501;45.956;13.632;2022-10-16T10:57:50;74.85;;;38.13;;
34236;SDS011;20501;45.956;13.632;2022-10-16T11:00:42;78.53;;;39.05;;
34236;SDS011;20501;45.956;13.632;2022-10-16T11:08:38;79.60;;;39.88;;
34236;SDS011;20501;45.956;13.632;2022-10-16T11:11:22;76.85;;;38.28;;
34236;SDS011;20501;45.956;13.632;2022-10-16T11:14:02;81.90;;;38.13;;
34236;SDS011;20501;45.956;13.632;2022-10-16T11:16:38;85.88;;;41.88;;
34236;SDS011;20501;45.956;13.632;2022-10-16T11:21:47;82.60;;;41.00;;
34236;SDS011;20501;45.956;13.632;2022-10-16T11:24:21;81.70;;;41.00;;
34236;SDS011;20501;45.956;13.632;2022-10-16T11:26:55;85.78;;;40.92;;
34236;SDS011;20501;45.956;13.632;2022-10-16T11:29:28;72.68;;;39.38;;
34236;SDS011;20501;45.956;13.632;2022-10-16T11:31:58;95.57;;;46.05;;
34236;SDS011;20501;45.956;13.632;2022-10-16T11:34:41;91.03;;;44.10;;
34236;SDS011;20501;45.956;13.632;2022-10-16T11:37:16;100.40;;;48.90;;
34236;SDS011;20501;45.956;13.632;2022-10-16T11:39:46;91.13;;;44.33;;
34236;SDS011;20501;45.956;13.632;2022-10-16T11:47:43;86.40;;;43.50;;
34236;SDS011;20501;45.956;13.632;2022-10-16T11:50:17;82.32;;;42.67;;
34236;SDS011;20501;45.956;13.632;2022-10-16T11:55:53;88.38;;;39.50;;
34236;SDS011;20501;45.956;13.632;2022-10-16T11:58:30;77.72;;;40.03;;
34236;SDS011;20501;45.956;13.632;2022-10-16T12:06:06;87.38;;;43.83;;
34236;SDS011;20501;45.956;13.632;2022-10-16T12:08:38;74.63;;;39.78;;
34236;SDS011;20501;45.956;13.632;2022-10-16T12:11:20;92.88;;;42.05;;
34236;SDS011;20501;45.956;13.632;2022-10-16T12:13:47;80.25;;;40.72;;
34236;SDS011;20501;45.956;13.632;2022-10-16T12:18:45;84.80;;;42.83;;
34236;SDS011;20501;45.956;13.632;2022-10-16T12:21:11;72.55;;;37.70;;
34236;SDS011;20501;45.956;13.632;2022-10-16T12:23:54;90.95;;;42.55;;
34236;SDS011;20501;45.956;13.632;2022-10-16T12:26:25;81.15;;;38.45;;
34236;SDS011;20501;45.956;13.632;2022-10-16T12:28:53;87.25;;;39.33;;
34236;SDS011;20501;45.956;13.632;2022-10-16T12:31:19;71.03;;;37.08;;
34236;SDS011;20501;45.956;13.632;2022-10-16T12:37:08;93.93;;;39.75;;
34236;SDS011;20501;45.956;13.632;2022-10-16T12:39:36;83.53;;;38.83;;
34236;SDS011;20501;45.956;13.632;2022-10-16T12:42:03;81.78;;;41.53;;
34236;SDS011;20501;45.956;13.632;2022-10-16T12:44:34;75.75;;;38.67;;
34236;SDS011;20501;45.956;13.632;2022-10-16T12:47:00;73.65;;;38.50;;
34236;SDS011;20501;45.956;13.632;2022-10-16T12:51:53;72.78;;;36.92;;
34236;SDS011;20501;45.956;13.632;2022-10-16T12:54:21;86.88;;;42.17;;
34236;SDS011;20501;45.956;13.632;2022-10-16T12:57:17;75.03;;;37.60;;
34236;SDS011;20501;45.956;13.632;2022-10-16T13:11:26;75.65;;;38.60;;
34236;SDS011;20501;45.956;13.632;2022-10-16T13:16:33;84.25;;;39.88;;
34236;SDS011;20501;45.956;13.632;2022-10-16T13:24:31;76.20;;;37.95;;
34236;SDS011;20501;45.956;13.632;2022-10-16T13:27:10;73.88;;;39.22;;
34236;SDS011;20501;45.956;13.632;2022-10-16T13:29:48;75.18;;;38.83;;
34236;SDS011;20501;45.956;13.632;2022-10-16T13:32:20;73.35;;;37.33;;
34236;SDS011;20501;45.956;13.632;2022-10-16T13:34:47;82.22;;;41.75;;
34236;SDS011;20501;45.956;13.632;2022-10-16T13:37:20;79.72;;;38.90;;
34236;SDS011;20501;45.956;13.632;2022-10-16T13:39:48;68.57;;;34.38;;
34236;SDS011;20501;45.956;13.632;2022-10-16T13:44:51;80.18;;;40.28;;
34236;SDS011;20501;45.956;13.632;2022-10-16T13:47:22;75.72;;;39.10;;
34236;SDS011;20501;45.956;13.632;2022-10-16T13:49:59;77.03;;;38.38;;
34236;SDS011;20501;45.956;13.632;2022-10-16T13:52:30;79.25;;;40.03;;
34236;SDS011;20501;45.956;13.632;2022-10-16T13:54:55;81.90;;;41.42;;
34236;SDS011;20501;45.956;13.632;2022-10-16T13:57:22;82.03;;;40.20;;
34236;SDS011;20501;45.956;13.632;2022-10-16T13:59:49;84.50;;;39.72;;
34236;SDS011;20501;45.956;13.632;2022-10-16T14:02:34;75.43;;;38.28;;
34236;SDS011;20501;45.956;13.632;2022-10-16T14:05:04;71.88;;;37.80;;
34236;SDS011;20501;45.956;13.632;2022-10-16T14:07:35;67.95;;;35.10;;
34236;SDS011;20501;45.956;13.632;2022-10-16T14:10:02;83.63;;;39.25;;
34236;SDS011;20501;45.956;13.632;2022-10-16T14:12:30;73.03;;;37.67;;
34236;SDS011;20501;45.956;13.632;2022-10-16T14:14:57;80.63;;;39.45;;
34236;SDS011;20501;45.956;13.632;2022-10-16T14:17:24;80.68;;;39.28;;
34236;SDS011;20501;45.956;13.632;2022-10-16T14:19:53;72.78;;;37.72;;
34236;SDS011;20501;45.956;13.632;2022-10-16T14:25:21;77.80;;;38.78;;
34236;SDS011;20501;45.956;13.632;2022-10-16T14:30:27;73.88;;;38.85;;
34236;SDS011;20501;45.956;13.632;2022-10-16T14:33:00;76.85;;;36.75;;
34236;SDS011;20501;45.956;13.632;2022-10-16T14:35:31;70.70;;;36.00;;
34236;SDS011;20501;45.956;13.632;2022-10-16T14:37:59;78.13;;;38.83;;
34236;SDS011;20501;45.956;13.632;2022-10-16T14:40:30;77.63;;;38.33;;
34236;SDS011;20501;45.956;13.632;2022-10-16T14:42:57;66.78;;;33.83;;
34236;SDS011;20501;45.956;13.632;2022-10-16T14:45:27;71.65;;;36.47;;
34236;SDS011;20501;45.956;13.632;2022-10-16T14:47:56;67.35;;;35.50;;
34236;SDS011;20501;45.956;13.632;2022-10-16T14:50:23;77.78;;;36.35;;
34236;SDS011;20501;45.956;13.632;2022-10-16T14:52:49;68.38;;;35.35;;
34236;SDS011;20501;45.956;13.632;2022-10-16T14:55:15;68.60;;;37.58;;
34236;SDS011;20501;45.956;13.632;2022-10-16T14:57:41;80.45;;;39.67;;
34236;SDS011;20501;45.956;13.632;2022-10-16T15:02:48;64.90;;;35.42;;
34236;SDS011;20501;45.956;13.632;2022-10-16T15:05:22;84.45;;;40.65;;
34236;SDS011;20501;45.956;13.632;2022-10-16T15:07:49;74.07;;;39.20;;
34236;SDS011;20501;45.956;13.632;2022-10-16T15:10:15;83.97;;;40.58;;
34236;SDS011;20501;45.956;13.632;2022-10-16T15:12:42;73.32;;;36.67;;
34236;SDS011;20501;45.956;13.632;2022-10-16T15:17:52;72.35;;;37.22;;
34236;SDS011;20501;45.956;13.632;2022-10-16T15:20:22;63.92;;;33.90;;
34236;SDS011;20501;45.956;13.632;2022-10-16T15:22:48;73.38;;;35.47;;
34236;SDS011;20501;45.956;13.632;2022-10-16T15:27:58;60.67;;;31.70;;
34236;SDS011;20501;45.956;13.632;2022-10-16T15:30:24;73.88;;;36.95;;
34236;SDS011;20501;45.956;13.632;2022-10-16T15:32:50;65.40;;;34.35;;
34236;SDS011;20501;45.956;13.632;2022-10-16T15:35:16;70.82;;;37.25;;
34236;SDS011;20501;45.956;13.632;2022-10-16T15:37:41;75.00;;;37.10;;
34236;SDS011;20501;45.956;13.632;2022-10-16T15:40:08;60.30;;;32.17;;
34236;SDS011;20501;45.956;13.632;2022-10-16T15:42:34;47.40;;;27.42;;
34236;SDS011;20501;45.956;13.632;2022-10-16T15:44:59;55.75;;;29.70;;
34236;SDS011;20501;45.956;13.632;2022-10-16T15:47:25;64.40;;;34.15;;
34236;SDS011;20501;45.956;13.632;2022-10-16T15:49:50;48.58;;;29.40;;
34236;SDS011;20501;45.956;13.632;2022-10-16T15:52:15;51.85;;;30.17;;
34236;SDS011;20501;45.956;13.632;2022-10-16T15:54:41;39.55;;;24.38;;
34236;SDS011;20501;45.956;13.632;2022-10-16T15:57:07;41.53;;;24.48;;
34236;SDS011;20501;45.956;13.632;2022-10-16T15:59:32;47.20;;;26.95;;
34236;SDS011;20501;45.956;13.632;2022-10-16T16:01:57;47.72;;;28.02;;
34236;SDS011;20501;45.956;13.632;2022-10-16T16:04:23;42.88;;;24.38;;
34236;SDS011;20501;45.956;13.632;2022-10-16T16:06:48;43.58;;;25.05;;
34236;SDS011;20501;45.956;13.632;2022-10-16T16:09:14;43.08;;;26.33;;
34236;SDS011;20501;45.956;13.632;2022-10-16T16:11:39;40.25;;;24.00;;
34236;SDS011;20501;45.956;13.632;2022-10-16T16:14:06;43.63;;;25.63;;
34236;SDS011;20501;45.956;13.632;2022-10-16T16:16:31;48.13;;;27.27;;
34236;SDS011;20501;45.956;13.632;2022-10-16T16:19:02;66.35;;;35.55;;
34236;SDS011;20501;45.956;13.632;2022-10-16T16:21:28;64.78;;;36.08;;
34236;SDS011;20501;45.956;13.632;2022-10-16T16:23:54;42.50;;;24.58;;
34236;SDS011;20501;45.956;13.632;2022-10-16T16:26:29;37.80;;;23.43;;
34236;SDS011;20501;45.956;13.632;2022-10-16T16:29:01;52.67;;;31.45;;
34236;SDS011;20501;45.956;13.632;2022-10-16T16:33:54;37.35;;;21.50;;
34236;SDS011;20501;45.956;13.632;2022-10-16T16:36:21;57.08;;;31.33;;
34236;SDS011;20501;45.956;13.632;2022-10-16T16:38:48;41.37;;;24.47;;